sensor_id;sensor_type;location;lat;lon;timestamp;P1;durP1;ratioP1;P2;durP2;ratioP2
60318;SDS011;46163;52.306;5.634;2023-02-28T00:00:50;0.60;;;0.60;;
60318;SDS011;46163;52.306;5.634;2023-02-28T00:03:16;0.80;;;0.80;;
60318;SDS011;46163;52.306;5.634;2023-02-28T00:05:41;0.70;;;0.70;;
60318;SDS011;46163;52.306;5.634;2023-02-28T00:08:07;0.80;;;0.80;;
60318;SDS011;46163;52.306;5.634;2023-02-28T00:10:33;1.42;;;0.73;;
60318;SDS011;46163;52.306;5.634;2023-02-28T00:13:00;0.60;;;0.60;;
60318;SDS011;46163;52.306;5.634;2023-02-28T00:15:30;0.63;;;0.63;;
60318;SDS011;46163;52.306;5.634;2023-02-28T00:17:56;0.73;;;0.73;;
60318;SDS011;46163;52.306;5.634;2023-02-28T00:20:22;2.78;;;0.90;;
60318;SDS011;46163;52.306;5.634;2023-02-28T00:22:49;0.80;;;0.80;;
60318;SDS011;46163;52.306;5.634;2023-02-28T00:25:19;0.63;;;0.63;;
60318;SDS011;46163;52.306;5.634;2023-02-28T00:27:46;0.77;;;0.77;;
60318;SDS011;46163;52.306;5.634;2023-02-28T00:30:13;0.80;;;0.80;;
60318;SDS011;46163;52.306;5.634;2023-02-28T00:32:41;0.80;;;0.80;;
60318;SDS011;46163;52.306;5.634;2023-02-28T00:35:07;0.77;;;0.70;;
60318;SDS011;46163;52.306;5.634;2023-02-28T00:37:33;0.70;;;0.70;;
60318;SDS011;46163;52.306;5.634;2023-02-28T00:39:59;0.90;;;0.90;;
60318;SDS011;46163;52.306;5.634;2023-02-28T00:42:25;0.82;;;0.70;;
60318;SDS011;46163;52.306;5.634;2023-02-28T00:44:51;3.63;;;1.15;;
60318;SDS011;46163;52.306;5.634;2023-02-28T00:47:16;0.85;;;0.85;;
60318;SDS011;46163;52.306;5.634;2023-02-28T00:49:42;1.02;;;0.98;;
60318;SDS011;46163;52.306;5.634;2023-02-28T00:52:07;0.80;;;0.80;;
60318;SDS011;46163;52.306;5.634;2023-02-28T00:54:33;0.98;;;0.98;;
60318;SDS011;46163;52.306;5.634;2023-02-28T00:56:58;0.82;;;0.82;;
60318;SDS011;46163;52.306;5.634;2023-02-28T00:59:26;0.80;;;0.80;;
60318;SDS011;46163;52.306;5.634;2023-02-28T01:01:51;1.00;;;1.00;;
60318;SDS011;46163;52.306;5.634;2023-02-28T01:04:17;0.70;;;0.70;;
60318;SDS011;46163;52.306;5.634;2023-02-28T01:06:42;1.65;;;0.90;;
60318;SDS011;46163;52.306;5.634;2023-02-28T01:09:08;0.50;;;0.50;;
60318;SDS011;46163;52.306;5.634;2023-02-28T01:11:34;0.68;;;0.68;;
60318;SDS011;46163;52.306;5.634;2023-02-28T01:14:00;0.82;;;0.82;;
60318;SDS011;46163;52.306;5.634;2023-02-28T01:16:27;0.88;;;0.88;;
60318;SDS011;46163;52.306;5.634;2023-02-28T01:18:53;0.90;;;0.90;;
60318;SDS011;46163;52.306;5.634;2023-02-28T01:21:19;0.80;;;0.80;;
60318;SDS011;46163;52.306;5.634;2023-02-28T01:23:48;0.90;;;0.90;;
60318;SDS011;46163;52.306;5.634;2023-02-28T01:26:16;1.00;;;0.90;;
60318;SDS011;46163;52.306;5.634;2023-02-28T01:28:43;0.80;;;0.80;;
60318;SDS011;46163;52.306;5.634;2023-02-28T01:31:09;0.90;;;0.90;;
60318;SDS011;46163;52.306;5.634;2023-02-28T01:33:35;0.98;;;0.98;;
60318;SDS011;46163;52.306;5.634;2023-02-28T01:36:02;0.60;;;0.60;;
60318;SDS011;46163;52.306;5.634;2023-02-28T01:38:29;1.10;;;1.00;;
60318;SDS011;46163;52.306;5.634;2023-02-28T01:40:55;0.63;;;0.63;;
60318;SDS011;46163;52.306;5.634;2023-02-28T01:43:28;0.77;;;0.70;;
60318;SDS011;46163;52.306;5.634;2023-02-28T01:46:14;1.05;;;0.60;;
60318;SDS011;46163;52.306;5.634;2023-02-28T01:48:45;0.70;;;0.70;;
60318;SDS011;46163;52.306;5.634;2023-02-28T01:51:19;0.73;;;0.73;;
60318;SDS011;46163;52.306;5.634;2023-02-28T01:53:51;1.13;;;0.80;;
60318;SDS011;46163;52.306;5.634;2023-02-28T01:56:24;1.00;;;0.85;;
60318;SDS011;46163;52.306;5.634;2023-02-28T01:58:53;0.70;;;0.70;;
60318;SDS011;46163;52.306;5.634;2023-02-28T02:01:20;2.03;;;1.13;;
60318;SDS011;46163;52.306;5.634;2023-02-28T02:03:51;0.70;;;0.70;;
60318;SDS011;46163;52.306;5.634;2023-02-28T02:06:21;0.88;;;0.88;;
60318;SDS011;46163;52.306;5.634;2023-02-28T02:08:48;1.00;;;1.00;;
60318;SDS011;46163;52.306;5.634;2023-02-28T02:11:13;0.90;;;0.90;;
60318;SDS011;46163;52.306;5.634;2023-02-28T02:14:03;0.85;;;0.85;;
60318;SDS011;46163;52.306;5.634;2023-02-28T02:20:01;0.90;;;0.82;;
60318;SDS011;46163;52.306;5.634;2023-02-28T02:25:49;0.80;;;0.80;;
60318;SDS011;46163;52.306;5.634;2023-02-28T02:28:25;0.73;;;0.73;;
60318;SDS011;46163;52.306;5.634;2023-02-28T02:36:23;0.63;;;0.63;;
60318;SDS011;46163;52.306;5.634;2023-02-28T02:38:55;0.90;;;0.90;;
60318;SDS011;46163;52.306;5.634;2023-02-28T02:41:45;1.00;;;1.00;;
60318;SDS011;46163;52.306;5.634;2023-02-28T02:47:01;0.82;;;0.82;;
60318;SDS011;46163;52.306;5.634;2023-02-28T02:49:35;0.70;;;0.70;;
60318;SDS011;46163;52.306;5.634;2023-02-28T02:52:07;0.70;;;0.70;;
60318;SDS011;46163;52.306;5.634;2023-02-28T02:54:37;0.90;;;0.90;;
60318;SDS011;46163;52.306;5.634;2023-02-28T02:57:07;0.68;;;0.68;;
60318;SDS011;46163;52.306;5.634;2023-02-28T02:59:37;1.23;;;1.15;;
60318;SDS011;46163;52.306;5.634;2023-02-28T03:02:06;0.80;;;0.80;;
60318;SDS011;46163;52.306;5.634;2023-02-28T03:04:36;1.10;;;1.10;;
60318;SDS011;46163;52.306;5.634;2023-02-28T03:07:07;0.90;;;0.90;;
60318;SDS011;46163;52.306;5.634;2023-02-28T03:09:33;1.10;;;1.10;;
60318;SDS011;46163;52.306;5.634;2023-02-28T03:12:00;0.77;;;0.77;;
60318;SDS011;46163;52.306;5.634;2023-02-28T03:17:35;0.80;;;0.80;;
60318;SDS011;46163;52.306;5.634;2023-02-28T03:20:17;0.82;;;0.82;;
60318;SDS011;46163;52.306;5.634;2023-02-28T03:23:08;0.73;;;0.73;;
60318;SDS011;46163;52.306;5.634;2023-02-28T03:28:31;0.75;;;0.75;;
60318;SDS011;46163;52.306;5.634;2023-02-28T03:30:59;0.80;;;0.80;;
60318;SDS011;46163;52.306;5.634;2023-02-28T03:36:32;0.70;;;0.70;;
60318;SDS011;46163;52.306;5.634;2023-02-28T03:41:43;0.82;;;0.82;;
60318;SDS011;46163;52.306;5.634;2023-02-28T03:44:36;0.70;;;0.70;;
60318;SDS011;46163;52.306;5.634;2023-02-28T03:47:19;0.77;;;0.77;;
60318;SDS011;46163;52.306;5.634;2023-02-28T03:49:57;1.17;;;0.80;;
60318;SDS011;46163;52.306;5.634;2023-02-28T03:52:53;0.90;;;0.90;;
60318;SDS011;46163;52.306;5.634;2023-02-28T03:55:27;0.68;;;0.68;;
60318;SDS011;46163;52.306;5.634;2023-02-28T03:58:17;0.77;;;0.77;;
60318;SDS011;46163;52.306;5.634;2023-02-28T04:00:53;0.80;;;0.80;;
60318;SDS011;46163;52.306;5.634;2023-02-28T04:03:24;0.60;;;0.60;;
60318;SDS011;46163;52.306;5.634;2023-02-28T04:05:53;0.80;;;0.80;;
60318;SDS011;46163;52.306;5.634;2023-02-28T04:08:20;0.75;;;0.75;;
60318;SDS011;46163;52.306;5.634;2023-02-28T04:10:48;0.80;;;0.80;;
60318;SDS011;46163;52.306;5.634;2023-02-28T04:13:21;0.75;;;0.75;;
60318;SDS011;46163;52.306;5.634;2023-02-28T04:15:46;0.65;;;0.65;;
60318;SDS011;46163;52.306;5.634;2023-02-28T04:18:12;0.60;;;0.60;;
60318;SDS011;46163;52.306;5.634;2023-02-28T04:20:37;0.80;;;0.80;;
60318;SDS011;46163;52.306;5.634;2023-02-28T04:23:03;0.80;;;0.80;;
60318;SDS011;46163;52.306;5.634;2023-02-28T04:25:28;0.90;;;0.90;;
60318;SDS011;46163;52.306;5.634;2023-02-28T04:27:54;0.70;;;0.70;;
60318;SDS011;46163;52.306;5.634;2023-02-28T04:30:19;0.80;;;0.80;;
60318;SDS011;46163;52.306;5.634;2023-02-28T04:32:45;0.60;;;0.60;;
60318;SDS011;46163;52.306;5.634;2023-02-28T04:35:10;0.70;;;0.70;;
60318;SDS011;46163;52.306;5.634;2023-02-28T04:37:38;1.20;;;0.60;;
60318;SDS011;46163;52.306;5.634;2023-02-28T04:40:03;0.70;;;0.70;;
60318;SDS011;46163;52.306;5.634;2023-02-28T04:42:29;1.25;;;0.68;;
60318;SDS011;46163;52.306;5.634;2023-02-28T04:45:01;0.70;;;0.70;;
60318;SDS011;46163;52.306;5.634;2023-02-28T04:47:27;0.80;;;0.80;;
60318;SDS011;46163;52.306;5.634;2023-02-28T04:49:53;0.80;;;0.80;;
60318;SDS011;46163;52.306;5.634;2023-02-28T04:52:21;0.75;;;0.75;;
60318;SDS011;46163;52.306;5.634;2023-02-28T04:54:47;0.77;;;0.77;;
60318;SDS011;46163;52.306;5.634;2023-02-28T04:57:12;0.60;;;0.60;;
60318;SDS011;46163;52.306;5.634;2023-02-28T04:59:38;0.50;;;0.50;;
60318;SDS011;46163;52.306;5.634;2023-02-28T05:02:03;0.70;;;0.70;;
60318;SDS011;46163;52.306;5.634;2023-02-28T05:04:32;0.90;;;0.90;;
60318;SDS011;46163;52.306;5.634;2023-02-28T05:06:59;0.70;;;0.70;;
60318;SDS011;46163;52.306;5.634;2023-02-28T05:09:26;0.70;;;0.70;;
60318;SDS011;46163;52.306;5.634;2023-02-28T05:11:52;0.80;;;0.80;;
60318;SDS011;46163;52.306;5.634;2023-02-28T05:14:20;0.57;;;0.57;;
60318;SDS011;46163;52.306;5.634;2023-02-28T05:19:11;0.65;;;0.65;;
60318;SDS011;46163;52.306;5.634;2023-02-28T05:21:41;0.75;;;0.75;;
60318;SDS011;46163;52.306;5.634;2023-02-28T05:24:15;0.60;;;0.60;;
60318;SDS011;46163;52.306;5.634;2023-02-28T05:26:47;0.60;;;0.60;;
60318;SDS011;46163;52.306;5.634;2023-02-28T05:29:13;0.68;;;0.68;;
60318;SDS011;46163;52.306;5.634;2023-02-28T05:31:38;0.70;;;0.70;;
60318;SDS011;46163;52.306;5.634;2023-02-28T05:34:04;0.80;;;0.80;;
60318;SDS011;46163;52.306;5.634;2023-02-28T05:36:30;0.50;;;0.50;;
60318;SDS011;46163;52.306;5.634;2023-02-28T05:38:55;0.63;;;0.63;;
60318;SDS011;46163;52.306;5.634;2023-02-28T05:41:21;0.47;;;0.47;;
60318;SDS011;46163;52.306;5.634;2023-02-28T05:43:47;0.60;;;0.60;;
60318;SDS011;46163;52.306;5.634;2023-02-28T05:46:13;0.65;;;0.65;;
60318;SDS011;46163;52.306;5.634;2023-02-28T05:48:40;0.60;;;0.60;;
60318;SDS011;46163;52.306;5.634;2023-02-28T05:51:06;0.80;;;0.80;;
60318;SDS011;46163;52.306;5.634;2023-02-28T05:53:32;0.50;;;0.50;;
60318;SDS011;46163;52.306;5.634;2023-02-28T05:55:58;0.60;;;0.60;;
60318;SDS011;46163;52.306;5.634;2023-02-28T05:58:24;0.70;;;0.70;;
60318;SDS011;46163;52.306;5.634;2023-02-28T06:00:54;0.63;;;0.63;;
60318;SDS011;46163;52.306;5.634;2023-02-28T06:03:19;0.50;;;0.50;;
60318;SDS011;46163;52.306;5.634;2023-02-28T06:05:45;0.60;;;0.60;;
60318;SDS011;46163;52.306;5.634;2023-02-28T06:08:10;0.40;;;0.40;;
60318;SDS011;46163;52.306;5.634;2023-02-28T06:10:36;0.57;;;0.57;;
60318;SDS011;46163;52.306;5.634;2023-02-28T06:13:02;0.57;;;0.57;;
60318;SDS011;46163;52.306;5.634;2023-02-28T06:15:29;0.80;;;0.70;;
60318;SDS011;46163;52.306;5.634;2023-02-28T06:17:55;0.60;;;0.60;;
60318;SDS011;46163;52.306;5.634;2023-02-28T06:20:21;0.70;;;0.70;;
60318;SDS011;46163;52.306;5.634;2023-02-28T06:22:48;0.60;;;0.60;;
60318;SDS011;46163;52.306;5.634;2023-02-28T06:25:15;0.67;;;0.60;;
60318;SDS011;46163;52.306;5.634;2023-02-28T06:27:40;0.68;;;0.68;;
60318;SDS011;46163;52.306;5.634;2023-02-28T06:30:06;0.50;;;0.50;;
60318;SDS011;46163;52.306;5.634;2023-02-28T06:32:32;0.47;;;0.47;;
60318;SDS011;46163;52.306;5.634;2023-02-28T06:34:57;0.60;;;0.60;;
60318;SDS011;46163;52.306;5.634;2023-02-28T06:37:23;0.65;;;0.65;;
60318;SDS011;46163;52.306;5.634;2023-02-28T06:39:52;0.40;;;0.40;;
60318;SDS011;46163;52.306;5.634;2023-02-28T06:42:18;0.70;;;0.70;;
60318;SDS011;46163;52.306;5.634;2023-02-28T06:44:45;0.70;;;0.70;;
60318;SDS011;46163;52.306;5.634;2023-02-28T06:47:11;0.80;;;0.80;;
60318;SDS011;46163;52.306;5.634;2023-02-28T06:49:37;0.70;;;0.70;;
60318;SDS011;46163;52.306;5.634;2023-02-28T06:52:04;0.70;;;0.70;;
60318;SDS011;46163;52.306;5.634;2023-02-28T06:54:29;0.73;;;0.70;;
60318;SDS011;46163;52.306;5.634;2023-02-28T06:56:55;0.73;;;0.73;;
60318;SDS011;46163;52.306;5.634;2023-02-28T06:59:20;0.60;;;0.60;;
60318;SDS011;46163;52.306;5.634;2023-02-28T07:01:46;0.73;;;0.73;;
60318;SDS011;46163;52.306;5.634;2023-02-28T07:04:11;0.68;;;0.68;;
60318;SDS011;46163;52.306;5.634;2023-02-28T07:06:38;0.60;;;0.60;;
60318;SDS011;46163;52.306;5.634;2023-02-28T07:09:03;0.70;;;0.70;;
60318;SDS011;46163;52.306;5.634;2023-02-28T07:11:29;0.60;;;0.60;;
60318;SDS011;46163;52.306;5.634;2023-02-28T07:13:55;0.73;;;0.68;;
60318;SDS011;46163;52.306;5.634;2023-02-28T07:16:21;0.70;;;0.70;;
60318;SDS011;46163;52.306;5.634;2023-02-28T07:18:48;0.80;;;0.80;;
60318;SDS011;46163;52.306;5.634;2023-02-28T07:21:14;0.70;;;0.70;;
60318;SDS011;46163;52.306;5.634;2023-02-28T07:23:40;0.57;;;0.57;;
60318;SDS011;46163;52.306;5.634;2023-02-28T07:26:07;0.70;;;0.70;;
60318;SDS011;46163;52.306;5.634;2023-02-28T07:28:37;0.77;;;0.77;;
60318;SDS011;46163;52.306;5.634;2023-02-28T07:31:04;0.70;;;0.70;;
60318;SDS011;46163;52.306;5.634;2023-02-28T07:33:31;0.52;;;0.52;;
60318;SDS011;46163;52.306;5.634;2023-02-28T07:36:03;0.70;;;0.70;;
60318;SDS011;46163;52.306;5.634;2023-02-28T07:38:33;0.50;;;0.50;;
60318;SDS011;46163;52.306;5.634;2023-02-28T07:41:00;2.70;;;0.68;;
60318;SDS011;46163;52.306;5.634;2023-02-28T07:43:29;0.50;;;0.50;;
60318;SDS011;46163;52.306;5.634;2023-02-28T07:46:00;0.98;;;0.75;;
60318;SDS011;46163;52.306;5.634;2023-02-28T07:48:27;0.50;;;0.50;;
60318;SDS011;46163;52.306;5.634;2023-02-28T07:50:54;0.80;;;0.80;;
60318;SDS011;46163;52.306;5.634;2023-02-28T07:53:23;0.70;;;0.70;;
60318;SDS011;46163;52.306;5.634;2023-02-28T07:58:14;0.50;;;0.50;;
60318;SDS011;46163;52.306;5.634;2023-02-28T08:00:40;0.70;;;0.70;;
60318;SDS011;46163;52.306;5.634;2023-02-28T08:03:05;0.75;;;0.75;;
60318;SDS011;46163;52.306;5.634;2023-02-28T08:05:31;1.60;;;0.65;;
60318;SDS011;46163;52.306;5.634;2023-02-28T08:07:56;0.60;;;0.60;;
60318;SDS011;46163;52.306;5.634;2023-02-28T08:10:22;0.47;;;0.47;;
60318;SDS011;46163;52.306;5.634;2023-02-28T08:12:49;0.57;;;0.57;;
60318;SDS011;46163;52.306;5.634;2023-02-28T08:15:15;0.60;;;0.60;;
60318;SDS011;46163;52.306;5.634;2023-02-28T08:17:40;0.57;;;0.57;;
60318;SDS011;46163;52.306;5.634;2023-02-28T08:20:06;0.63;;;0.60;;
60318;SDS011;46163;52.306;5.634;2023-02-28T08:22:32;0.63;;;0.63;;
60318;SDS011;46163;52.306;5.634;2023-02-28T08:24:58;0.55;;;0.55;;
60318;SDS011;46163;52.306;5.634;2023-02-28T08:27:23;0.60;;;0.60;;
60318;SDS011;46163;52.306;5.634;2023-02-28T08:29:49;0.60;;;0.60;;
60318;SDS011;46163;52.306;5.634;2023-02-28T08:32:14;0.50;;;0.50;;
60318;SDS011;46163;52.306;5.634;2023-02-28T08:34:40;1.38;;;0.88;;
60318;SDS011;46163;52.306;5.634;2023-02-28T08:37:05;0.80;;;0.80;;
60318;SDS011;46163;52.306;5.634;2023-02-28T08:39:33;0.52;;;0.45;;
60318;SDS011;46163;52.306;5.634;2023-02-28T08:42:01;0.50;;;0.50;;
60318;SDS011;46163;52.306;5.634;2023-02-28T08:44:28;0.50;;;0.50;;
60318;SDS011;46163;52.306;5.634;2023-02-28T08:46:53;0.60;;;0.60;;
60318;SDS011;46163;52.306;5.634;2023-02-28T08:49:19;0.70;;;0.70;;
60318;SDS011;46163;52.306;5.634;2023-02-28T08:51:44;0.60;;;0.60;;
60318;SDS011;46163;52.306;5.634;2023-02-28T08:54:11;0.60;;;0.60;;
60318;SDS011;46163;52.306;5.634;2023-02-28T08:56:44;0.60;;;0.60;;
60318;SDS011;46163;52.306;5.634;2023-02-28T08:59:10;0.50;;;0.50;;
60318;SDS011;46163;52.306;5.634;2023-02-28T09:01:36;0.60;;;0.60;;
60318;SDS011;46163;52.306;5.634;2023-02-28T09:04:01;0.50;;;0.50;;
60318;SDS011;46163;52.306;5.634;2023-02-28T09:06:27;0.50;;;0.50;;
60318;SDS011;46163;52.306;5.634;2023-02-28T09:08:55;0.40;;;0.40;;
60318;SDS011;46163;52.306;5.634;2023-02-28T09:11:23;0.70;;;0.57;;
60318;SDS011;46163;52.306;5.634;2023-02-28T09:13:49;0.50;;;0.50;;
60318;SDS011;46163;52.306;5.634;2023-02-28T09:16:14;0.52;;;0.52;;
60318;SDS011;46163;52.306;5.634;2023-02-28T09:18:41;0.45;;;0.45;;
60318;SDS011;46163;52.306;5.634;2023-02-28T09:21:08;0.50;;;0.50;;
60318;SDS011;46163;52.306;5.634;2023-02-28T09:23:35;1.35;;;0.70;;
60318;SDS011;46163;52.306;5.634;2023-02-28T09:26:03;0.52;;;0.52;;
60318;SDS011;46163;52.306;5.634;2023-02-28T09:28:29;0.60;;;0.60;;
60318;SDS011;46163;52.306;5.634;2023-02-28T09:30:55;0.45;;;0.45;;
60318;SDS011;46163;52.306;5.634;2023-02-28T09:33:22;0.55;;;0.50;;
60318;SDS011;46163;52.306;5.634;2023-02-28T09:35:57;0.38;;;0.38;;
60318;SDS011;46163;52.306;5.634;2023-02-28T09:38:24;0.82;;;0.70;;
60318;SDS011;46163;52.306;5.634;2023-02-28T09:40:50;0.50;;;0.50;;
60318;SDS011;46163;52.306;5.634;2023-02-28T09:43:20;0.40;;;0.40;;
60318;SDS011;46163;52.306;5.634;2023-02-28T09:45:51;1.50;;;0.80;;
60318;SDS011;46163;52.306;5.634;2023-02-28T09:48:25;0.60;;;0.60;;
60318;SDS011;46163;52.306;5.634;2023-02-28T09:51:04;0.57;;;0.57;;
60318;SDS011;46163;52.306;5.634;2023-02-28T09:53:37;0.50;;;0.50;;
60318;SDS011;46163;52.306;5.634;2023-02-28T09:56:10;0.60;;;0.60;;
60318;SDS011;46163;52.306;5.634;2023-02-28T09:59:10;1.55;;;0.57;;
60318;SDS011;46163;52.306;5.634;2023-02-28T10:01:44;0.73;;;0.73;;
60318;SDS011;46163;52.306;5.634;2023-02-28T10:06:50;0.40;;;0.40;;
60318;SDS011;46163;52.306;5.634;2023-02-28T10:11:48;0.57;;;0.57;;
60318;SDS011;46163;52.306;5.634;2023-02-28T10:14:24;0.57;;;0.57;;
60318;SDS011;46163;52.306;5.634;2023-02-28T10:22:10;0.55;;;0.55;;
60318;SDS011;46163;52.306;5.634;2023-02-28T10:24:41;0.68;;;0.68;;
60318;SDS011;46163;52.306;5.634;2023-02-28T10:29:37;0.50;;;0.50;;
60318;SDS011;46163;52.306;5.634;2023-02-28T10:32:05;0.70;;;0.55;;
60318;SDS011;46163;52.306;5.634;2023-02-28T10:34:31;0.55;;;0.52;;
60318;SDS011;46163;52.306;5.634;2023-02-28T10:36:57;0.57;;;0.57;;
60318;SDS011;46163;52.306;5.634;2023-02-28T10:39:42;0.57;;;0.57;;
60318;SDS011;46163;52.306;5.634;2023-02-28T10:45:26;0.40;;;0.40;;
60318;SDS011;46163;52.306;5.634;2023-02-28T10:47:55;0.47;;;0.47;;
60318;SDS011;46163;52.306;5.634;2023-02-28T10:50:26;0.60;;;0.60;;
60318;SDS011;46163;52.306;5.634;2023-02-28T10:55:40;0.60;;;0.60;;
60318;SDS011;46163;52.306;5.634;2023-02-28T10:58:25;0.50;;;0.50;;
60318;SDS011;46163;52.306;5.634;2023-02-28T11:01:10;0.40;;;0.40;;
60318;SDS011;46163;52.306;5.634;2023-02-28T11:03:39;0.50;;;0.50;;
60318;SDS011;46163;52.306;5.634;2023-02-28T11:06:06;0.50;;;0.50;;
60318;SDS011;46163;52.306;5.634;2023-02-28T11:08:43;0.50;;;0.50;;
60318;SDS011;46163;52.306;5.634;2023-02-28T11:11:14;0.50;;;0.50;;
60318;SDS011;46163;52.306;5.634;2023-02-28T11:13:42;0.65;;;0.65;;
60318;SDS011;46163;52.306;5.634;2023-02-28T11:16:10;0.50;;;0.50;;
60318;SDS011;46163;52.306;5.634;2023-02-28T11:18:40;0.50;;;0.50;;
60318;SDS011;46163;52.306;5.634;2023-02-28T11:21:16;0.50;;;0.50;;
60318;SDS011;46163;52.306;5.634;2023-02-28T11:24:04;0.70;;;0.70;;
60318;SDS011;46163;52.306;5.634;2023-02-28T11:26:42;0.85;;;0.70;;
60318;SDS011;46163;52.306;5.634;2023-02-28T11:29:21;0.60;;;0.60;;
60318;SDS011;46163;52.306;5.634;2023-02-28T11:37:13;0.60;;;0.60;;
60318;SDS011;46163;52.306;5.634;2023-02-28T11:39:42;0.82;;;0.82;;
60318;SDS011;46163;52.306;5.634;2023-02-28T11:50:16;1.15;;;0.80;;
60318;SDS011;46163;52.306;5.634;2023-02-28T11:55:42;0.63;;;0.63;;
60318;SDS011;46163;52.306;5.634;2023-02-28T11:58:58;0.65;;;0.65;;
60318;SDS011;46163;52.306;5.634;2023-02-28T12:10:28;0.63;;;0.63;;
60318;SDS011;46163;52.306;5.634;2023-02-28T12:26:44;1.08;;;1.00;;
60318;SDS011;46163;52.306;5.634;2023-02-28T12:29:28;0.60;;;0.60;;
60318;SDS011;46163;52.306;5.634;2023-02-28T12:32:09;1.58;;;1.10;;
60318;SDS011;46163;52.306;5.634;2023-02-28T12:34:46;0.82;;;0.77;;
60318;SDS011;46163;52.306;5.634;2023-02-28T12:37:25;0.80;;;0.80;;
60318;SDS011;46163;52.306;5.634;2023-02-28T12:40:41;0.77;;;0.77;;
60318;SDS011;46163;52.306;5.634;2023-02-28T12:42:58;0.70;;;0.70;;
60318;SDS011;46163;52.306;5.634;2023-02-28T12:51:01;0.68;;;0.68;;
60318;SDS011;46163;52.306;5.634;2023-02-28T12:56:27;0.85;;;0.85;;
60318;SDS011;46163;52.306;5.634;2023-02-28T12:59:08;1.27;;;1.08;;
60318;SDS011;46163;52.306;5.634;2023-02-28T13:10:21;0.70;;;0.70;;
60318;SDS011;46163;52.306;5.634;2023-02-28T13:12:50;1.95;;;1.00;;
60318;SDS011;46163;52.306;5.634;2023-02-28T13:15:24;1.23;;;1.02;;
60318;SDS011;46163;52.306;5.634;2023-02-28T13:17:58;0.73;;;0.73;;
60318;SDS011;46163;52.306;5.634;2023-02-28T13:20:25;0.93;;;0.93;;
60318;SDS011;46163;52.306;5.634;2023-02-28T13:22:54;0.90;;;0.90;;
60318;SDS011;46163;52.306;5.634;2023-02-28T13:27:46;0.60;;;0.60;;
60318;SDS011;46163;52.306;5.634;2023-02-28T13:33:30;1.02;;;0.90;;
60318;SDS011;46163;52.306;5.634;2023-02-28T13:36:01;0.77;;;0.70;;
60318;SDS011;46163;52.306;5.634;2023-02-28T13:38:32;0.73;;;0.73;;
60318;SDS011;46163;52.306;5.634;2023-02-28T13:46:29;0.90;;;0.90;;
60318;SDS011;46163;52.306;5.634;2023-02-28T13:48:55;1.02;;;0.90;;
60318;SDS011;46163;52.306;5.634;2023-02-28T13:51:40;0.77;;;0.70;;
60318;SDS011;46163;52.306;5.634;2023-02-28T13:54:33;0.80;;;0.80;;
60318;SDS011;46163;52.306;5.634;2023-02-28T13:59:58;0.52;;;0.52;;
60318;SDS011;46163;52.306;5.634;2023-02-28T14:05:42;1.25;;;0.73;;
60318;SDS011;46163;52.306;5.634;2023-02-28T14:10:48;0.50;;;0.50;;
60318;SDS011;46163;52.306;5.634;2023-02-28T14:16:03;0.50;;;0.50;;
60318;SDS011;46163;52.306;5.634;2023-02-28T14:18:31;1.25;;;0.70;;
60318;SDS011;46163;52.306;5.634;2023-02-28T14:21:13;0.57;;;0.57;;
60318;SDS011;46163;52.306;5.634;2023-02-28T14:26:26;0.77;;;0.77;;
60318;SDS011;46163;52.306;5.634;2023-02-28T14:32:02;0.60;;;0.60;;
60318;SDS011;46163;52.306;5.634;2023-02-28T14:37:11;0.43;;;0.43;;
60318;SDS011;46163;52.306;5.634;2023-02-28T14:39:41;0.82;;;0.80;;
60318;SDS011;46163;52.306;5.634;2023-02-28T14:44:58;0.50;;;0.50;;
60318;SDS011;46163;52.306;5.634;2023-02-28T14:47:28;0.80;;;0.70;;
60318;SDS011;46163;52.306;5.634;2023-02-28T14:49:59;1.63;;;0.80;;
60318;SDS011;46163;52.306;5.634;2023-02-28T14:52:27;0.70;;;0.70;;
60318;SDS011;46163;52.306;5.634;2023-02-28T14:55:05;0.70;;;0.70;;
60318;SDS011;46163;52.306;5.634;2023-02-28T14:57:41;0.57;;;0.57;;
60318;SDS011;46163;52.306;5.634;2023-02-28T15:00:26;0.70;;;0.70;;
60318;SDS011;46163;52.306;5.634;2023-02-28T15:02:54;0.60;;;0.60;;
60318;SDS011;46163;52.306;5.634;2023-02-28T15:05:31;0.60;;;0.60;;
60318;SDS011;46163;52.306;5.634;2023-02-28T15:08:05;0.70;;;0.70;;
60318;SDS011;46163;52.306;5.634;2023-02-28T15:10:37;0.60;;;0.60;;
60318;SDS011;46163;52.306;5.634;2023-02-28T15:13:06;0.70;;;0.70;;
60318;SDS011;46163;52.306;5.634;2023-02-28T15:18:05;0.60;;;0.60;;
60318;SDS011;46163;52.306;5.634;2023-02-28T15:20:32;3.30;;;0.77;;
60318;SDS011;46163;52.306;5.634;2023-02-28T15:22:58;1.40;;;0.70;;
60318;SDS011;46163;52.306;5.634;2023-02-28T15:25:25;0.70;;;0.70;;
60318;SDS011;46163;52.306;5.634;2023-02-28T15:27:52;0.80;;;0.65;;
60318;SDS011;46163;52.306;5.634;2023-02-28T15:30:21;0.50;;;0.50;;
60318;SDS011;46163;52.306;5.634;2023-02-28T15:35:37;0.60;;;0.60;;
60318;SDS011;46163;52.306;5.634;2023-02-28T15:38:22;0.70;;;0.70;;
60318;SDS011;46163;52.306;5.634;2023-02-28T15:40:56;1.05;;;0.77;;
60318;SDS011;46163;52.306;5.634;2023-02-28T15:46:00;4.53;;;2.13;;
60318;SDS011;46163;52.306;5.634;2023-02-28T15:48:36;8.70;;;2.35;;
60318;SDS011;46163;52.306;5.634;2023-02-28T15:53:30;7.85;;;2.60;;
60318;SDS011;46163;52.306;5.634;2023-02-28T15:56:05;6.00;;;2.35;;
60318;SDS011;46163;52.306;5.634;2023-02-28T15:58:48;7.22;;;2.85;;
60318;SDS011;46163;52.306;5.634;2023-02-28T16:01:27;7.82;;;2.45;;
60318;SDS011;46163;52.306;5.634;2023-02-28T16:04:01;9.55;;;2.70;;
60318;SDS011;46163;52.306;5.634;2023-02-28T16:11:34;10.38;;;3.80;;
60318;SDS011;46163;52.306;5.634;2023-02-28T16:14:08;11.00;;;3.40;;
60318;SDS011;46163;52.306;5.634;2023-02-28T16:16:41;13.38;;;3.33;;
60318;SDS011;46163;52.306;5.634;2023-02-28T16:19:09;9.15;;;3.13;;
60318;SDS011;46163;52.306;5.634;2023-02-28T16:21:34;8.43;;;2.90;;
60318;SDS011;46163;52.306;5.634;2023-02-28T16:24:00;7.38;;;2.90;;
60318;SDS011;46163;52.306;5.634;2023-02-28T16:26:25;9.00;;;3.25;;
60318;SDS011;46163;52.306;5.634;2023-02-28T16:28:53;7.28;;;2.60;;
60318;SDS011;46163;52.306;5.634;2023-02-28T16:31:19;6.72;;;2.63;;
60318;SDS011;46163;52.306;5.634;2023-02-28T16:33:45;7.32;;;2.50;;
60318;SDS011;46163;52.306;5.634;2023-02-28T16:36:18;5.25;;;2.70;;
60318;SDS011;46163;52.306;5.634;2023-02-28T16:38:50;7.32;;;2.35;;
60318;SDS011;46163;52.306;5.634;2023-02-28T16:41:20;5.03;;;2.00;;
60318;SDS011;46163;52.306;5.634;2023-02-28T16:43:47;3.58;;;1.50;;
60318;SDS011;46163;52.306;5.634;2023-02-28T16:46:15;2.78;;;1.63;;
60318;SDS011;46163;52.306;5.634;2023-02-28T16:48:41;2.72;;;1.65;;
60318;SDS011;46163;52.306;5.634;2023-02-28T16:51:17;2.33;;;1.48;;
60318;SDS011;46163;52.306;5.634;2023-02-28T16:53:44;1.88;;;1.40;;
60318;SDS011;46163;52.306;5.634;2023-02-28T16:56:15;3.63;;;1.60;;
60318;SDS011;46163;52.306;5.634;2023-02-28T16:58:41;1.45;;;1.35;;
60318;SDS011;46163;52.306;5.634;2023-02-28T17:01:06;2.97;;;1.40;;
60318;SDS011;46163;52.306;5.634;2023-02-28T17:03:32;2.05;;;1.40;;
60318;SDS011;46163;52.306;5.634;2023-02-28T17:05:57;5.10;;;1.35;;
60318;SDS011;46163;52.306;5.634;2023-02-28T17:08:23;1.65;;;1.38;;
60318;SDS011;46163;52.306;5.634;2023-02-28T17:10:48;2.20;;;1.13;;
60318;SDS011;46163;52.306;5.634;2023-02-28T17:13:14;1.98;;;1.10;;
60318;SDS011;46163;52.306;5.634;2023-02-28T17:15:39;9.82;;;1.42;;
60318;SDS011;46163;52.306;5.634;2023-02-28T17:18:06;1.38;;;1.10;;
60318;SDS011;46163;52.306;5.634;2023-02-28T17:22:59;3.88;;;1.27;;
60318;SDS011;46163;52.306;5.634;2023-02-28T17:25:27;1.15;;;1.10;;
60318;SDS011;46163;52.306;5.634;2023-02-28T17:27:52;1.08;;;0.98;;
60318;SDS011;46163;52.306;5.634;2023-02-28T17:30:20;1.23;;;1.13;;
60318;SDS011;46163;52.306;5.634;2023-02-28T17:32:52;2.00;;;0.90;;
60318;SDS011;46163;52.306;5.634;2023-02-28T17:35:21;1.73;;;1.17;;
60318;SDS011;46163;52.306;5.634;2023-02-28T17:37:48;1.02;;;0.95;;
60318;SDS011;46163;52.306;5.634;2023-02-28T17:40:15;0.82;;;0.80;;